Eau Claire, Wisconsin
Current Conditions -  °F | °C
As of 3:56 AM on Thursday 27 Nov 2014 (Local Time) from KEAU Reporting Station
Clear Clear  
Wind Chill: -10°   Ceiling: Unl
Heat Index:   Visibility: 10mi
Dew Point: -2°   Wind: 13mph
Humidity: 69%   Direction: 330°NNW
Pressure: 30.39"   Gusts: NA
Location:  44.82°N, 91.5°W
Report Text: KEAU 270956Z AUTO 33011KT 10SM CLR M14/M19 A3039 RMK AO2 SLP310 T11441189
Loading
Personal Weather Stations






























Interactive Weather Map New forecast layout! Learn more

10-Day Weather Forecast

Advertisements
Track Severe Weather on mobile